createdAt,value
2018-11-26T00:00:50.382Z,6.70
2018-11-26T00:03:18.110Z,6.50
2018-11-26T00:05:45.809Z,6.60
2018-11-26T00:08:13.552Z,6.50
2018-11-26T00:10:53.012Z,6.80
2018-11-26T00:13:20.778Z,6.60
2018-11-26T00:15:48.495Z,6.60
2018-11-26T00:18:16.214Z,6.80
2018-11-26T00:20:43.934Z,6.60
2018-11-26T00:23:11.649Z,7.00
2018-11-26T00:25:39.348Z,6.60
2018-11-26T00:28:07.093Z,6.90
2018-11-26T00:30:34.791Z,6.60
2018-11-26T00:33:02.520Z,6.70
2018-11-26T00:35:30.265Z,6.80
2018-11-26T00:37:58.038Z,6.50
2018-11-26T00:40:25.777Z,6.60
2018-11-26T00:42:53.490Z,6.70
2018-11-26T00:45:21.262Z,6.70
2018-11-26T00:47:49.038Z,6.60
2018-11-26T00:50:16.743Z,6.70
2018-11-26T00:52:44.469Z,6.50
2018-11-26T00:55:12.182Z,6.50
2018-11-26T00:57:39.864Z,6.70
2018-11-26T01:00:11.442Z,6.70
2018-11-26T01:02:39.175Z,6.80
2018-11-26T01:05:07.499Z,6.60
2018-11-26T01:07:35.198Z,6.60
2018-11-26T01:10:02.992Z,6.70
2018-11-26T01:12:30.673Z,6.60
2018-11-26T01:14:58.432Z,6.80
2018-11-26T01:17:26.202Z,6.60
2018-11-26T01:19:53.913Z,6.80
2018-11-26T01:22:21.606Z,6.70
2018-11-26T01:24:49.333Z,6.50
2018-11-26T01:27:17.024Z,6.80
2018-11-26T01:29:44.781Z,6.50
2018-11-26T01:32:12.486Z,6.30
2018-11-26T01:34:40.214Z,6.70
2018-11-26T01:37:07.948Z,6.50
2018-11-26T01:39:35.650Z,6.80
2018-11-26T01:42:03.371Z,6.60
2018-11-26T01:44:31.109Z,6.50
2018-11-26T01:46:58.802Z,6.70
2018-11-26T01:49:26.533Z,6.80
2018-11-26T01:51:57.042Z,6.50
2018-11-26T01:54:24.742Z,6.80
2018-11-26T01:56:52.449Z,6.60
2018-11-26T01:59:20.185Z,6.80
2018-11-26T02:01:48.010Z,6.60
2018-11-26T02:04:15.709Z,7.00
2018-11-26T02:06:43.433Z,6.70
2018-11-26T02:09:11.133Z,6.60
2018-11-26T02:11:38.848Z,6.70
2018-11-26T02:14:06.578Z,6.60
2018-11-26T02:16:34.309Z,6.50
2018-11-26T02:19:01.998Z,6.80
2018-11-26T02:21:29.717Z,6.80
2018-11-26T02:23:57.427Z,6.70
2018-11-26T02:26:25.242Z,6.60
2018-11-26T02:28:52.949Z,6.60
2018-11-26T02:31:20.667Z,6.50
2018-11-26T02:33:48.414Z,6.80
2018-11-26T02:36:16.130Z,6.80
2018-11-26T02:38:43.846Z,6.50
2018-11-26T02:41:11.611Z,6.70
2018-11-26T02:43:39.323Z,6.50
2018-11-26T02:46:07.049Z,6.50
2018-11-26T02:48:34.755Z,6.60
2018-11-26T02:51:02.455Z,6.70
2018-11-26T02:53:30.177Z,6.70
2018-11-26T02:55:57.892Z,6.60
2018-11-26T02:58:25.588Z,6.50
2018-11-26T03:00:53.298Z,6.50
2018-11-26T03:03:21.043Z,6.50
2018-11-26T03:05:48.777Z,6.50
2018-11-26T03:08:16.515Z,6.80
2018-11-26T03:10:44.208Z,6.50
2018-11-26T03:13:11.921Z,6.80
2018-11-26T03:15:39.619Z,6.60
2018-11-26T03:18:07.314Z,6.50
2018-11-26T03:20:35.022Z,6.60
2018-11-26T03:23:02.717Z,6.60
2018-11-26T03:25:30.427Z,6.80
2018-11-26T03:27:58.097Z,6.50
2018-11-26T03:30:25.822Z,6.80
2018-11-26T03:32:53.517Z,6.90
2018-11-26T03:35:21.251Z,6.60
2018-11-26T03:37:48.995Z,6.60
2018-11-26T03:40:16.737Z,6.70
2018-11-26T03:42:44.500Z,6.70
2018-11-26T03:45:16.205Z,6.30
2018-11-26T03:47:43.966Z,6.30
2018-11-26T03:50:12.363Z,6.50
2018-11-26T03:52:40.814Z,6.80
2018-11-26T03:55:09.700Z,6.50
2018-11-26T03:57:37.417Z,6.60
2018-11-26T04:00:09.505Z,6.70
2018-11-26T04:02:37.234Z,6.60
2018-11-26T04:05:05.709Z,6.50
2018-11-26T04:07:33.443Z,6.70
2018-11-26T04:10:01.173Z,6.60
2018-11-26T04:12:28.887Z,6.50
2018-11-26T04:14:56.665Z,6.80
2018-11-26T04:17:24.372Z,6.80
2018-11-26T04:19:52.050Z,6.30
2018-11-26T04:22:19.784Z,6.60
2018-11-26T04:24:47.473Z,6.70
2018-11-26T04:27:15.181Z,6.60
2018-11-26T04:29:42.882Z,6.50
2018-11-26T04:32:10.646Z,6.60
2018-11-26T04:34:38.333Z,6.80
2018-11-26T04:37:06.054Z,6.30
2018-11-26T04:39:33.763Z,6.60
2018-11-26T04:42:01.443Z,6.70
2018-11-26T04:44:29.157Z,6.50
2018-11-26T04:46:56.833Z,6.30
2018-11-26T04:49:24.566Z,6.50
2018-11-26T04:51:52.246Z,6.30
2018-11-26T04:54:19.965Z,6.30
2018-11-26T04:56:47.674Z,6.80
2018-11-26T04:59:15.358Z,6.30
2018-11-26T05:01:43.111Z,6.20
2018-11-26T05:04:10.815Z,6.40
2018-11-26T05:06:38.505Z,6.20
2018-11-26T05:09:08.679Z,6.30
2018-11-26T05:11:37.265Z,6.50
2018-11-26T05:14:05.329Z,6.30
2018-11-26T05:16:33.053Z,6.70
2018-11-26T05:19:00.747Z,6.20
2018-11-26T05:21:28.506Z,6.30
2018-11-26T05:23:56.210Z,6.30
2018-11-26T05:26:23.930Z,6.30
2018-11-26T05:28:51.657Z,6.60
2018-11-26T05:31:19.344Z,6.40
2018-11-26T05:33:47.038Z,6.30
2018-11-26T05:36:14.747Z,6.30
2018-11-26T05:38:42.512Z,6.40
2018-11-26T05:41:10.209Z,6.30
2018-11-26T05:43:37.923Z,6.40
2018-11-26T05:46:05.682Z,6.40
2018-11-26T05:48:33.397Z,6.30
2018-11-26T05:51:01.114Z,6.30
2018-11-26T05:53:28.856Z,6.20
2018-11-26T05:55:56.560Z,6.20
2018-11-26T05:58:24.322Z,6.30
2018-11-26T06:00:52.040Z,6.50
2018-11-26T06:03:19.762Z,6.40
2018-11-26T06:05:47.464Z,6.50
2018-11-26T06:08:15.206Z,6.80
2018-11-26T06:10:42.964Z,6.60
2018-11-26T06:13:10.677Z,6.40
2018-11-26T06:15:38.428Z,6.70
2018-11-26T06:18:06.153Z,6.60
2018-11-26T06:20:33.882Z,6.50
2018-11-26T06:23:01.590Z,6.20
2018-11-26T06:25:29.305Z,6.70
2018-11-26T06:27:56.983Z,6.80
2018-11-26T06:30:24.695Z,6.80
2018-11-26T06:32:52.544Z,6.50
2018-11-26T06:35:22.385Z,6.80
2018-11-26T06:37:50.089Z,6.30
2018-11-26T06:40:17.908Z,6.20
2018-11-26T06:42:45.763Z,6.30
2018-11-26T06:45:15.633Z,6.70
2018-11-26T06:47:43.433Z,6.50
2018-11-26T06:50:12.497Z,6.80
2018-11-26T06:52:40.289Z,6.60
2018-11-26T06:55:11.825Z,6.60
2018-11-26T06:57:39.586Z,6.70
2018-11-26T07:00:11.587Z,6.70
2018-11-26T07:02:39.394Z,6.60
2018-11-26T07:05:11.007Z,6.90
2018-11-26T07:07:38.745Z,7.00
2018-11-26T07:10:07.735Z,6.90
2018-11-26T07:12:35.477Z,7.50
2018-11-26T07:15:03.597Z,7.10
2018-11-26T07:17:31.341Z,7.30
2018-11-26T07:19:59.105Z,7.20
2018-11-26T07:22:26.795Z,7.30
2018-11-26T07:24:54.496Z,7.00
2018-11-26T07:27:22.218Z,6.90
2018-11-26T07:29:49.941Z,7.10
2018-11-26T07:32:17.658Z,7.00
2018-11-26T07:34:45.403Z,7.10
2018-11-26T07:37:13.106Z,7.00
2018-11-26T07:39:40.903Z,7.10
2018-11-26T07:42:08.623Z,6.90
2018-11-26T07:44:36.398Z,6.80
2018-11-26T07:47:04.202Z,6.90
2018-11-26T07:49:31.989Z,7.00
2018-11-26T07:52:00.577Z,7.00
2018-11-26T07:54:28.302Z,7.10
2018-11-26T07:56:56.030Z,7.10
2018-11-26T07:59:23.763Z,6.90
2018-11-26T08:01:51.493Z,7.20
2018-11-26T08:04:19.214Z,7.30
2018-11-26T08:06:47.030Z,7.30
2018-11-26T08:09:14.733Z,7.10
2018-11-26T08:11:42.459Z,7.20
2018-11-26T08:14:10.161Z,7.20
2018-11-26T08:16:37.925Z,7.50
2018-11-26T08:19:05.743Z,7.80
2018-11-26T08:21:33.476Z,7.80
2018-11-26T08:24:01.217Z,7.90
2018-11-26T08:26:28.926Z,7.60
2018-11-26T08:28:56.638Z,7.60
2018-11-26T08:31:24.357Z,7.80
2018-11-26T08:33:52.145Z,7.80
2018-11-26T08:36:25.503Z,7.70
2018-11-26T08:38:58.892Z,7.90
2018-11-26T08:41:32.393Z,7.50
2018-11-26T08:45:05.553Z,7.70
2018-11-26T08:47:33.391Z,7.90
2018-11-26T08:50:01.603Z,7.50
2018-11-26T08:52:29.321Z,7.80
2018-11-26T08:54:57.015Z,7.70
2018-11-26T08:57:24.746Z,8.00
2018-11-26T08:59:52.468Z,7.90
2018-11-26T09:02:21.757Z,7.60
2018-11-26T09:04:55.044Z,7.60
2018-11-26T09:07:22.761Z,8.10
2018-11-26T09:09:50.482Z,8.00
2018-11-26T09:12:18.231Z,7.90
2018-11-26T09:14:45.933Z,8.10
2018-11-26T09:17:13.663Z,8.00
2018-11-26T09:19:41.398Z,8.50
2018-11-26T09:22:09.164Z,8.10
2018-11-26T09:24:36.893Z,7.90
2018-11-26T09:27:09.729Z,8.50
2018-11-26T09:29:32.626Z,7.90
2018-11-26T09:32:00.397Z,8.20
2018-11-26T09:34:28.115Z,8.20
2018-11-26T09:36:55.882Z,8.10
2018-11-26T09:39:23.577Z,8.00
2018-11-26T09:41:51.303Z,8.20
2018-11-26T09:44:19.085Z,7.90
2018-11-26T09:46:46.866Z,8.20
2018-11-26T09:49:14.643Z,8.00
2018-11-26T09:51:42.443Z,8.20
2018-11-26T09:54:10.173Z,8.20
2018-11-26T09:56:37.874Z,8.20
2018-11-26T09:59:05.624Z,8.40
2018-11-26T10:01:33.386Z,8.40
2018-11-26T10:04:01.088Z,8.30
2018-11-26T10:06:28.843Z,8.20
2018-11-26T10:08:56.592Z,8.40
2018-11-26T10:11:24.318Z,8.50
2018-11-26T10:13:52.050Z,8.70
2018-11-26T10:16:19.810Z,8.90
2018-11-26T10:18:47.520Z,8.80
2018-11-26T10:21:15.242Z,8.80
2018-11-26T10:23:43.061Z,8.80
2018-11-26T10:26:10.835Z,8.50
2018-11-26T10:28:38.543Z,8.40
2018-11-26T10:31:06.287Z,8.60
2018-11-26T10:33:34.450Z,8.60
2018-11-26T10:36:02.208Z,8.40
2018-11-26T10:38:29.925Z,8.50
2018-11-26T10:40:57.670Z,8.70
2018-11-26T10:43:25.432Z,8.30
2018-11-26T10:45:53.157Z,8.80
2018-11-26T10:48:20.861Z,8.80
2018-11-26T10:50:48.591Z,8.90
2018-11-26T10:53:16.313Z,8.70
2018-11-26T10:55:44.039Z,8.60
2018-11-26T10:58:11.804Z,9.00
2018-11-26T11:00:40.306Z,9.00
2018-11-26T11:03:08.023Z,9.00
2018-11-26T11:05:36.619Z,8.90
2018-11-26T11:08:05.398Z,8.60
2018-11-26T11:10:33.306Z,8.80
2018-11-26T11:13:01.066Z,8.80
2018-11-26T11:15:28.863Z,8.80
2018-11-26T11:17:56.594Z,8.90
2018-11-26T11:20:26.122Z,8.80
2018-11-26T11:22:53.864Z,8.70
2018-11-26T11:25:21.971Z,8.70
2018-11-26T11:27:50.293Z,8.80
2018-11-26T11:30:19.075Z,8.60
2018-11-26T11:32:46.863Z,8.80
2018-11-26T11:35:15.215Z,8.80
2018-11-26T11:37:43.981Z,8.90
2018-11-26T11:40:13.859Z,8.70
2018-11-26T11:42:42.370Z,8.70
2018-11-26T11:45:11.290Z,8.70
2018-11-26T11:47:39.119Z,8.70
2018-11-26T11:50:09.339Z,8.80
2018-11-26T11:52:37.102Z,8.80
2018-11-26T11:55:06.251Z,8.70
2018-11-26T11:57:33.960Z,8.60
2018-11-26T12:00:01.731Z,8.50
2018-11-26T12:02:29.533Z,8.70
2018-11-26T12:04:57.299Z,8.60
2018-11-26T12:07:25.007Z,8.70
2018-11-26T12:09:52.753Z,8.40
2018-11-26T12:12:20.479Z,8.20
2018-11-26T12:14:48.232Z,8.50
2018-11-26T12:17:15.972Z,8.40
2018-11-26T12:19:43.725Z,8.50
2018-11-26T12:22:11.487Z,7.90
2018-11-26T12:24:39.233Z,8.20
2018-11-26T12:27:06.988Z,8.30
2018-11-26T12:29:34.704Z,8.50
2018-11-26T12:32:02.409Z,8.00
2018-11-26T12:34:30.150Z,7.90
2018-11-26T12:36:57.993Z,7.90
2018-11-26T12:39:25.647Z,7.90
2018-11-26T12:42:04.197Z,7.90
2018-11-26T12:44:38.171Z,7.90
2018-11-26T12:47:05.895Z,7.90
2018-11-26T12:49:33.607Z,8.20
2018-11-26T12:52:01.342Z,8.10
2018-11-26T12:54:29.048Z,8.00
2018-11-26T12:56:56.782Z,8.20
2018-11-26T12:59:24.515Z,7.90
2018-11-26T13:01:52.244Z,8.00
2018-11-26T13:04:19.999Z,8.00
2018-11-26T13:06:47.738Z,8.10
2018-11-26T13:09:15.451Z,8.10
2018-11-26T13:11:43.186Z,8.00
2018-11-26T13:14:10.891Z,8.20
2018-11-26T13:16:38.619Z,8.30
2018-11-26T13:19:06.335Z,8.40
2018-11-26T13:21:34.040Z,8.00
2018-11-26T13:24:01.750Z,7.90
2018-11-26T13:26:29.466Z,8.40
2018-11-26T13:28:57.167Z,7.90
2018-11-26T13:31:24.895Z,8.50
2018-11-26T13:33:52.602Z,8.50
2018-11-26T13:36:20.338Z,8.80
2018-11-26T13:38:48.055Z,8.60
2018-11-26T13:41:15.788Z,8.70
2018-11-26T13:43:43.510Z,8.60
2018-11-26T13:46:11.255Z,8.90
2018-11-26T13:48:38.980Z,8.80
2018-11-26T13:51:06.694Z,8.40
2018-11-26T13:53:34.423Z,8.60
2018-11-26T13:56:02.135Z,8.60
2018-11-26T13:58:29.887Z,8.80
2018-11-26T14:00:57.662Z,8.20
2018-11-26T14:03:25.419Z,8.70
2018-11-26T14:05:53.143Z,8.70
2018-11-26T14:08:20.862Z,8.40
2018-11-26T14:10:48.620Z,8.20
2018-11-26T14:13:16.577Z,8.40
2018-11-26T14:15:44.410Z,8.30
2018-11-26T14:18:12.216Z,8.20
2018-11-26T14:20:39.987Z,8.40
2018-11-26T14:23:07.918Z,8.40
2018-11-26T14:25:35.651Z,8.30
2018-11-26T14:28:03.449Z,8.30
2018-11-26T14:30:31.193Z,8.40
2018-11-26T14:32:58.956Z,8.40
2018-11-26T14:35:26.715Z,8.40
2018-11-26T14:37:59.124Z,8.40
2018-11-26T14:40:33.404Z,8.30
2018-11-26T14:43:01.184Z,8.50
2018-11-26T14:45:28.904Z,8.20
2018-11-26T14:47:56.712Z,8.40
2018-11-26T14:50:24.484Z,8.40
2018-11-26T14:52:52.271Z,8.40
2018-11-26T14:55:25.307Z,8.40
2018-11-26T14:57:53.087Z,8.40
2018-11-26T15:00:21.131Z,8.40
2018-11-26T15:02:48.921Z,8.20
2018-11-26T15:05:16.731Z,7.90
2018-11-26T15:07:44.803Z,8.00
2018-11-26T15:10:20.340Z,7.90
2018-11-26T15:12:48.229Z,7.80
2018-11-26T15:15:25.258Z,8.10
2018-11-26T15:17:53.051Z,8.00
2018-11-26T15:20:22.110Z,7.50
2018-11-26T15:22:50.518Z,7.90
2018-11-26T15:25:19.567Z,7.90
2018-11-26T15:27:47.335Z,8.10
2018-11-26T15:30:17.023Z,8.10
2018-11-26T15:32:44.873Z,7.80
2018-11-26T15:35:13.704Z,7.60
2018-11-26T15:37:41.569Z,7.90
2018-11-26T15:40:10.504Z,8.10
2018-11-26T15:42:38.305Z,7.70
2018-11-26T15:45:11.242Z,7.90
2018-11-26T15:47:38.998Z,7.80
2018-11-26T15:50:07.235Z,7.80
2018-11-26T15:52:34.957Z,7.50
2018-11-26T15:55:02.694Z,7.60
2018-11-26T15:57:30.497Z,7.50
2018-11-26T15:59:58.272Z,7.80
2018-11-26T16:02:26.055Z,7.80
2018-11-26T16:04:53.786Z,7.80
2018-11-26T16:07:21.644Z,8.00
2018-11-26T16:09:49.401Z,7.90
2018-11-26T16:12:17.232Z,7.60
2018-11-26T16:14:44.999Z,8.00
2018-11-26T16:17:12.775Z,7.50
2018-11-26T16:19:40.572Z,7.70
2018-11-26T16:22:08.605Z,7.70
2018-11-26T16:24:36.340Z,7.70
2018-11-26T16:27:04.415Z,7.80
2018-11-26T16:29:32.120Z,7.60
2018-11-26T16:31:59.838Z,7.90
2018-11-26T16:34:27.544Z,7.80
2018-11-26T16:36:55.275Z,7.60
2018-11-26T16:39:23.052Z,7.50
2018-11-26T16:41:50.849Z,7.80
2018-11-26T16:44:18.611Z,7.50
2018-11-26T16:46:46.346Z,7.60
2018-11-26T16:49:14.068Z,7.60
2018-11-26T16:51:41.831Z,7.70
2018-11-26T16:54:09.556Z,7.70
2018-11-26T16:56:37.330Z,7.80
2018-11-26T16:59:05.800Z,7.40
2018-11-26T17:01:33.650Z,7.80
2018-11-26T17:04:01.397Z,7.50
2018-11-26T17:06:29.211Z,7.60
2018-11-26T17:08:56.999Z,7.50
2018-11-26T17:11:24.764Z,8.00
2018-11-26T17:13:52.500Z,7.70
2018-11-26T17:16:20.231Z,7.60
2018-11-26T17:18:48.160Z,7.70
2018-11-26T17:21:15.875Z,7.80
2018-11-26T17:23:43.632Z,7.50
2018-11-26T17:26:11.423Z,7.70
2018-11-26T17:28:39.191Z,7.80
2018-11-26T17:31:06.931Z,7.80
2018-11-26T17:33:35.068Z,7.50
2018-11-26T17:36:03.828Z,7.70
2018-11-26T17:38:31.578Z,7.60
2018-11-26T17:40:59.362Z,7.60
2018-11-26T17:43:27.113Z,7.60
2018-11-26T17:45:54.855Z,7.60
2018-11-26T17:48:23.194Z,7.20
2018-11-26T17:50:50.460Z,7.40
2018-11-26T17:53:19.614Z,7.50
2018-11-26T17:55:49.462Z,7.50
2018-11-26T17:58:17.971Z,7.30
2018-11-26T18:00:47.865Z,7.20
2018-11-26T18:03:15.575Z,7.30
2018-11-26T18:05:43.344Z,7.30
2018-11-26T18:08:12.619Z,7.20
2018-11-26T18:10:40.381Z,7.30
2018-11-26T18:13:09.260Z,7.50
2018-11-26T18:15:37.015Z,7.30
2018-11-26T18:18:07.755Z,7.20
2018-11-26T18:20:35.490Z,7.50
2018-11-26T18:23:03.211Z,7.30
2018-11-26T18:25:30.970Z,7.40
2018-11-26T18:28:07.315Z,7.20
2018-11-26T18:30:37.676Z,7.30
2018-11-26T18:33:05.552Z,7.20
2018-11-26T18:35:33.306Z,7.50
2018-11-26T18:38:01.086Z,7.20
2018-11-26T18:40:28.854Z,7.40
2018-11-26T18:42:56.614Z,6.90
2018-11-26T18:45:24.370Z,7.20
2018-11-26T18:47:52.089Z,7.40
2018-11-26T18:50:20.891Z,6.90
2018-11-26T18:52:49.555Z,7.00
2018-11-26T18:55:17.566Z,7.00
2018-11-26T18:57:45.361Z,7.10
2018-11-26T19:00:18.575Z,6.90
2018-11-26T19:02:46.414Z,6.30
2018-11-26T19:05:15.150Z,6.90
2018-11-26T19:07:42.867Z,7.00
2018-11-26T19:10:18.653Z,7.10
2018-11-26T19:12:49.472Z,7.30
2018-11-26T19:15:25.467Z,7.20
2018-11-26T19:17:55.280Z,7.30
2018-11-26T19:20:23.080Z,7.20
2018-11-26T19:22:50.788Z,7.00
2018-11-26T19:25:18.684Z,7.10
2018-11-26T19:27:46.436Z,7.20
2018-11-26T19:30:14.795Z,7.00
2018-11-26T19:32:43.600Z,7.00
2018-11-26T19:35:12.668Z,7.10
2018-11-26T19:37:40.425Z,7.10
2018-11-26T19:40:12.544Z,6.90
2018-11-26T19:42:40.832Z,6.90
2018-11-26T19:45:11.712Z,6.80
2018-11-26T19:47:39.479Z,7.00
2018-11-26T19:50:09.285Z,6.90
2018-11-26T19:52:37.020Z,6.80
2018-11-26T19:55:07.511Z,7.10
2018-11-26T19:57:35.274Z,7.20
2018-11-26T20:00:04.071Z,7.10
2018-11-26T20:02:31.790Z,6.90
2018-11-26T20:05:00.866Z,7.00
2018-11-26T20:07:28.652Z,7.00
2018-11-26T20:09:56.470Z,7.00
2018-11-26T20:12:24.300Z,6.90
2018-11-26T20:14:52.007Z,6.50
2018-11-26T20:17:19.752Z,6.80
2018-11-26T20:19:47.490Z,7.20
2018-11-26T20:22:15.263Z,7.00
2018-11-26T20:24:42.987Z,6.80
2018-11-26T20:27:10.703Z,6.80
2018-11-26T20:29:38.435Z,6.60
2018-11-26T20:32:06.244Z,6.80
2018-11-26T20:34:33.967Z,6.80
2018-11-26T20:37:01.705Z,6.60
2018-11-26T20:39:29.416Z,6.80
2018-11-26T20:41:57.176Z,6.60
2018-11-26T20:44:24.921Z,6.60
2018-11-26T20:46:52.660Z,7.00
2018-11-26T20:49:20.441Z,6.40
2018-11-26T20:51:48.229Z,6.70
2018-11-26T20:54:15.964Z,6.60
2018-11-26T20:56:43.660Z,7.00
2018-11-26T20:59:11.415Z,7.00
2018-11-26T21:01:39.187Z,7.10
2018-11-26T21:04:06.953Z,7.10
2018-11-26T21:06:34.728Z,7.10
2018-11-26T21:09:02.759Z,7.10
2018-11-26T21:11:30.492Z,7.20
2018-11-26T21:13:58.224Z,7.00
2018-11-26T21:16:25.991Z,6.80
2018-11-26T21:18:53.724Z,6.60
2018-11-26T21:21:21.467Z,6.90
2018-11-26T21:23:49.313Z,6.70
2018-11-26T21:26:17.039Z,6.80
2018-11-26T21:28:44.853Z,6.70
2018-11-26T21:31:12.617Z,6.90
2018-11-26T21:33:40.368Z,6.90
2018-11-26T21:36:08.151Z,6.80
2018-11-26T21:38:37.865Z,6.70
2018-11-26T21:41:06.353Z,6.80
2018-11-26T21:43:34.069Z,6.60
2018-11-26T21:46:01.968Z,6.80
2018-11-26T21:48:29.709Z,6.60
2018-11-26T21:50:57.451Z,6.90
2018-11-26T21:53:25.266Z,6.70
2018-11-26T21:55:53.036Z,6.60
2018-11-26T21:58:20.778Z,6.80
2018-11-26T22:00:49.922Z,6.40
2018-11-26T22:03:17.663Z,6.40
2018-11-26T22:05:45.458Z,6.80
2018-11-26T22:08:13.328Z,6.70
2018-11-26T22:10:42.210Z,6.60
2018-11-26T22:13:11.556Z,6.80
2018-11-26T22:15:39.340Z,6.60
2018-11-26T22:18:07.610Z,6.60
2018-11-26T22:20:35.462Z,6.80
2018-11-26T22:23:03.271Z,6.80
2018-11-26T22:25:31.038Z,6.90
2018-11-26T22:27:58.804Z,6.70
2018-11-26T22:30:28.066Z,6.60
2018-11-26T22:32:55.880Z,6.30
2018-11-26T22:35:23.622Z,6.80
2018-11-26T22:37:51.473Z,6.60
2018-11-26T22:40:21.053Z,6.80
2018-11-26T22:42:48.841Z,6.70
2018-11-26T22:45:26.307Z,6.30
2018-11-26T22:48:07.024Z,6.50
2018-11-26T22:50:43.816Z,6.30
2018-11-26T22:53:11.695Z,6.40
2018-11-26T22:55:39.726Z,6.60
2018-11-26T22:58:09.670Z,6.70
2018-11-26T23:00:40.630Z,6.40
2018-11-26T23:03:08.667Z,6.40
2018-11-26T23:05:36.427Z,6.60
2018-11-26T23:08:04.501Z,6.40
2018-11-26T23:10:32.242Z,6.40
2018-11-26T23:13:00.001Z,6.40
2018-11-26T23:15:27.732Z,6.30
2018-11-26T23:17:55.510Z,6.60
2018-11-26T23:20:23.264Z,6.30
2018-11-26T23:22:50.987Z,6.30
2018-11-26T23:25:19.559Z,6.40
2018-11-26T23:27:47.373Z,6.30
2018-11-26T23:30:25.107Z,6.60
2018-11-26T23:32:56.071Z,6.50
2018-11-26T23:35:23.863Z,6.70
2018-11-26T23:37:51.602Z,6.80
2018-11-26T23:40:19.466Z,6.90
2018-11-26T23:42:47.351Z,6.60
2018-11-26T23:45:17.176Z,6.50
2018-11-26T23:47:44.954Z,6.70
2018-11-26T23:50:13.813Z,6.50
2018-11-26T23:52:41.813Z,6.50
2018-11-26T23:55:11.447Z,6.30
2018-11-26T23:57:39.213Z,6.30
